Decoded Metar for KHUF (TERRE HAUTE in IN, USA) (IATA:HUF) | Meteo·Mobile Aviation Weather
aviador You're here:

KHUF Decoded Metar

TERRE HAUTE in IN, USA
Report Time2019-02-16 16:53:00
UTC Time2019-02-16 17:08:44
Flight Rules vfr VFR
Wind040° at 05 kt
W.Decomp.*RWY 05: 5.0 kt HW 0.7 kt LCW
RWY 36: 3.7 kt HW 3.3 kt RCW
RWY 32: 0.7 kt HW 5.0 kt RCW
W.Rank040° ranks 30
Current wind is below 040° avg. (6.3)
Visibility9999 m
Phenomena:N/A
Clouds:N/A
Expected CloudBase > 2,800 ft AGL from Temp-Dew spread
CeilingNone
Temp00°C (ISA -14)
Dew Point-7°C (60% RH)
AAT-4.6°C
QNH1019 hPa
Density Alt-1,253 ft
Elevation587 ft
Report Wrong Elevation
Raw Report
KHUF 161653Z 04005KT 10SM CLR 00/M07 A3009 RMK AO2 SLP195
T00001072=

Extra information for KHUF:More info

Metar Taf Metar & Taf Last 4 Metars F.Rules Stats Wind Profile Meteogram Temp Stats Airport Information Weather charts Add Link Nearby VenuesMetar ALERT Operation Metar Decoded Social comments

AIRNAV info for KHUF